sensor_id;sensor_type;location;lat;lon;timestamp;P1;durP1;ratioP1;P2;durP2;ratioP2
25331;SDS011;13284;52.748;13.452;2023-12-04T00:01:32;10.43;;;8.00;;
25331;SDS011;13284;52.748;13.452;2023-12-04T00:03:58;12.60;;;6.90;;
25331;SDS011;13284;52.748;13.452;2023-12-04T00:06:23;15.63;;;7.87;;
25331;SDS011;13284;52.748;13.452;2023-12-04T00:08:49;14.00;;;7.23;;
25331;SDS011;13284;52.748;13.452;2023-12-04T00:11:14;14.83;;;8.40;;
25331;SDS011;13284;52.748;13.452;2023-12-04T00:13:40;15.40;;;6.80;;
25331;SDS011;13284;52.748;13.452;2023-12-04T00:16:05;13.30;;;6.90;;
25331;SDS011;13284;52.748;13.452;2023-12-04T00:18:31;10.23;;;5.93;;
25331;SDS011;13284;52.748;13.452;2023-12-04T00:20:57;12.87;;;7.37;;
25331;SDS011;13284;52.748;13.452;2023-12-04T00:23:23;11.40;;;7.60;;
25331;SDS011;13284;52.748;13.452;2023-12-04T00:25:48;13.00;;;6.93;;
25331;SDS011;13284;52.748;13.452;2023-12-04T00:28:14;15.73;;;7.50;;
25331;SDS011;13284;52.748;13.452;2023-12-04T00:30:40;12.40;;;7.30;;
25331;SDS011;13284;52.748;13.452;2023-12-04T00:33:06;16.93;;;8.10;;
25331;SDS011;13284;52.748;13.452;2023-12-04T00:35:32;13.47;;;7.17;;
25331;SDS011;13284;52.748;13.452;2023-12-04T00:37:57;13.20;;;7.30;;
25331;SDS011;13284;52.748;13.452;2023-12-04T00:40:23;14.70;;;7.20;;
25331;SDS011;13284;52.748;13.452;2023-12-04T00:42:48;15.20;;;7.83;;
25331;SDS011;13284;52.748;13.452;2023-12-04T00:45:14;11.80;;;6.27;;
25331;SDS011;13284;52.748;13.452;2023-12-04T00:47:40;13.07;;;6.27;;
25331;SDS011;13284;52.748;13.452;2023-12-04T00:50:05;11.10;;;6.00;;
25331;SDS011;13284;52.748;13.452;2023-12-04T00:52:31;15.20;;;7.10;;
25331;SDS011;13284;52.748;13.452;2023-12-04T00:54:57;11.57;;;6.20;;
25331;SDS011;13284;52.748;13.452;2023-12-04T00:57:22;11.13;;;6.07;;
25331;SDS011;13284;52.748;13.452;2023-12-04T00:59:48;13.30;;;6.03;;
25331;SDS011;13284;52.748;13.452;2023-12-04T01:02:13;14.67;;;7.47;;
25331;SDS011;13284;52.748;13.452;2023-12-04T01:04:42;13.07;;;6.00;;
25331;SDS011;13284;52.748;13.452;2023-12-04T01:07:07;12.57;;;8.40;;
25331;SDS011;13284;52.748;13.452;2023-12-04T01:09:36;13.67;;;7.87;;
25331;SDS011;13284;52.748;13.452;2023-12-04T01:12:02;12.80;;;6.57;;
25331;SDS011;13284;52.748;13.452;2023-12-04T01:14:28;11.60;;;5.83;;
25331;SDS011;13284;52.748;13.452;2023-12-04T01:16:54;15.20;;;7.60;;
25331;SDS011;13284;52.748;13.452;2023-12-04T01:19:22;18.07;;;8.63;;
25331;SDS011;13284;52.748;13.452;2023-12-04T01:21:47;14.10;;;6.90;;
25331;SDS011;13284;52.748;13.452;2023-12-04T01:24:13;13.80;;;6.80;;
25331;SDS011;13284;52.748;13.452;2023-12-04T01:26:40;13.37;;;7.00;;
25331;SDS011;13284;52.748;13.452;2023-12-04T01:29:05;15.57;;;8.30;;
25331;SDS011;13284;52.748;13.452;2023-12-04T01:31:31;16.50;;;8.83;;
25331;SDS011;13284;52.748;13.452;2023-12-04T01:33:56;18.00;;;8.37;;
25331;SDS011;13284;52.748;13.452;2023-12-04T01:36:22;18.60;;;9.10;;
25331;SDS011;13284;52.748;13.452;2023-12-04T01:38:48;15.00;;;8.90;;
25331;SDS011;13284;52.748;13.452;2023-12-04T01:41:13;15.03;;;8.30;;
25331;SDS011;13284;52.748;13.452;2023-12-04T01:43:39;16.70;;;8.40;;
25331;SDS011;13284;52.748;13.452;2023-12-04T01:46:04;15.33;;;8.20;;
25331;SDS011;13284;52.748;13.452;2023-12-04T01:48:31;18.67;;;8.33;;
25331;SDS011;13284;52.748;13.452;2023-12-04T01:50:57;13.20;;;8.03;;
25331;SDS011;13284;52.748;13.452;2023-12-04T01:53:25;23.40;;;7.47;;
25331;SDS011;13284;52.748;13.452;2023-12-04T01:55:51;15.80;;;7.73;;
25331;SDS011;13284;52.748;13.452;2023-12-04T01:58:17;19.60;;;8.20;;
25331;SDS011;13284;52.748;13.452;2023-12-04T02:00:43;15.83;;;8.33;;
25331;SDS011;13284;52.748;13.452;2023-12-04T02:03:09;19.50;;;8.67;;
25331;SDS011;13284;52.748;13.452;2023-12-04T02:05:35;21.07;;;9.23;;
25331;SDS011;13284;52.748;13.452;2023-12-04T02:08:01;15.70;;;9.70;;
25331;SDS011;13284;52.748;13.452;2023-12-04T02:10:28;22.50;;;9.60;;
25331;SDS011;13284;52.748;13.452;2023-12-04T02:12:54;20.43;;;8.70;;
25331;SDS011;13284;52.748;13.452;2023-12-04T02:15:20;18.47;;;10.00;;
25331;SDS011;13284;52.748;13.452;2023-12-04T02:17:45;21.20;;;9.47;;
25331;SDS011;13284;52.748;13.452;2023-12-04T02:20:15;17.03;;;8.90;;
25331;SDS011;13284;52.748;13.452;2023-12-04T02:22:42;20.30;;;8.10;;
25331;SDS011;13284;52.748;13.452;2023-12-04T02:25:07;16.47;;;8.63;;
25331;SDS011;13284;52.748;13.452;2023-12-04T02:27:37;19.87;;;10.40;;
25331;SDS011;13284;52.748;13.452;2023-12-04T02:30:07;19.77;;;10.30;;
25331;SDS011;13284;52.748;13.452;2023-12-04T02:32:37;19.30;;;11.30;;
25331;SDS011;13284;52.748;13.452;2023-12-04T02:35:12;20.67;;;10.07;;
25331;SDS011;13284;52.748;13.452;2023-12-04T02:37:40;15.83;;;9.10;;
25331;SDS011;13284;52.748;13.452;2023-12-04T02:40:07;17.10;;;8.53;;
25331;SDS011;13284;52.748;13.452;2023-12-04T02:42:33;16.37;;;9.30;;
25331;SDS011;13284;52.748;13.452;2023-12-04T02:44:58;21.50;;;10.10;;
25331;SDS011;13284;52.748;13.452;2023-12-04T02:47:24;18.07;;;9.40;;
25331;SDS011;13284;52.748;13.452;2023-12-04T02:49:50;18.57;;;9.10;;
25331;SDS011;13284;52.748;13.452;2023-12-04T02:52:15;21.90;;;10.23;;
25331;SDS011;13284;52.748;13.452;2023-12-04T02:54:41;26.70;;;12.73;;
25331;SDS011;13284;52.748;13.452;2023-12-04T02:57:06;18.67;;;10.80;;
25331;SDS011;13284;52.748;13.452;2023-12-04T02:59:32;20.63;;;9.53;;
25331;SDS011;13284;52.748;13.452;2023-12-04T03:01:58;21.13;;;10.17;;
25331;SDS011;13284;52.748;13.452;2023-12-04T03:04:23;15.40;;;9.07;;
25331;SDS011;13284;52.748;13.452;2023-12-04T03:06:49;15.77;;;10.00;;
25331;SDS011;13284;52.748;13.452;2023-12-04T03:09:14;19.07;;;9.53;;
25331;SDS011;13284;52.748;13.452;2023-12-04T03:11:40;25.10;;;10.13;;
25331;SDS011;13284;52.748;13.452;2023-12-04T03:14:06;19.30;;;10.10;;
25331;SDS011;13284;52.748;13.452;2023-12-04T03:16:32;17.00;;;10.43;;
25331;SDS011;13284;52.748;13.452;2023-12-04T03:18:57;19.87;;;10.73;;
25331;SDS011;13284;52.748;13.452;2023-12-04T03:21:23;23.30;;;10.60;;
25331;SDS011;13284;52.748;13.452;2023-12-04T03:23:48;20.73;;;10.67;;
25331;SDS011;13284;52.748;13.452;2023-12-04T03:26:14;23.00;;;11.50;;
25331;SDS011;13284;52.748;13.452;2023-12-04T03:28:40;20.40;;;9.63;;
25331;SDS011;13284;52.748;13.452;2023-12-04T03:31:05;17.90;;;10.37;;
25331;SDS011;13284;52.748;13.452;2023-12-04T03:33:31;20.70;;;10.77;;
25331;SDS011;13284;52.748;13.452;2023-12-04T03:35:58;19.50;;;9.90;;
25331;SDS011;13284;52.748;13.452;2023-12-04T03:38:24;18.63;;;9.90;;
25331;SDS011;13284;52.748;13.452;2023-12-04T03:40:49;28.93;;;10.60;;
25331;SDS011;13284;52.748;13.452;2023-12-04T03:43:15;24.10;;;10.10;;
25331;SDS011;13284;52.748;13.452;2023-12-04T03:45:40;19.83;;;10.27;;
25331;SDS011;13284;52.748;13.452;2023-12-04T03:48:06;23.10;;;12.50;;
25331;SDS011;13284;52.748;13.452;2023-12-04T03:50:31;21.50;;;10.57;;
25331;SDS011;13284;52.748;13.452;2023-12-04T03:52:57;20.97;;;10.60;;
25331;SDS011;13284;52.748;13.452;2023-12-04T03:55:22;22.50;;;10.63;;
25331;SDS011;13284;52.748;13.452;2023-12-04T03:57:48;21.73;;;11.00;;
25331;SDS011;13284;52.748;13.452;2023-12-04T04:00:13;21.57;;;10.47;;
25331;SDS011;13284;52.748;13.452;2023-12-04T04:02:39;18.00;;;9.50;;
25331;SDS011;13284;52.748;13.452;2023-12-04T04:05:07;19.80;;;10.70;;
25331;SDS011;13284;52.748;13.452;2023-12-04T04:07:32;21.27;;;10.50;;
25331;SDS011;13284;52.748;13.452;2023-12-04T04:09:58;26.90;;;12.37;;
25331;SDS011;13284;52.748;13.452;2023-12-04T04:12:23;21.80;;;10.90;;
25331;SDS011;13284;52.748;13.452;2023-12-04T04:14:49;29.10;;;12.10;;
25331;SDS011;13284;52.748;13.452;2023-12-04T04:17:14;24.07;;;10.87;;
25331;SDS011;13284;52.748;13.452;2023-12-04T04:19:40;22.53;;;10.77;;
25331;SDS011;13284;52.748;13.452;2023-12-04T04:22:06;17.17;;;8.53;;
25331;SDS011;13284;52.748;13.452;2023-12-04T04:24:32;24.00;;;11.13;;
25331;SDS011;13284;52.748;13.452;2023-12-04T04:26:57;21.07;;;9.90;;
25331;SDS011;13284;52.748;13.452;2023-12-04T04:29:23;19.83;;;10.73;;
25331;SDS011;13284;52.748;13.452;2023-12-04T04:31:48;22.20;;;10.07;;
25331;SDS011;13284;52.748;13.452;2023-12-04T04:34:14;26.00;;;12.23;;
25331;SDS011;13284;52.748;13.452;2023-12-04T04:36:39;26.23;;;11.23;;
25331;SDS011;13284;52.748;13.452;2023-12-04T04:39:07;19.70;;;10.40;;
25331;SDS011;13284;52.748;13.452;2023-12-04T04:41:32;22.03;;;10.87;;
25331;SDS011;13284;52.748;13.452;2023-12-04T04:43:58;21.73;;;11.00;;
25331;SDS011;13284;52.748;13.452;2023-12-04T04:46:23;20.50;;;10.90;;
25331;SDS011;13284;52.748;13.452;2023-12-04T04:48:51;15.50;;;9.50;;
25331;SDS011;13284;52.748;13.452;2023-12-04T04:51:17;17.23;;;9.47;;
25331;SDS011;13284;52.748;13.452;2023-12-04T04:53:42;21.23;;;10.47;;
25331;SDS011;13284;52.748;13.452;2023-12-04T04:56:08;18.60;;;10.57;;
25331;SDS011;13284;52.748;13.452;2023-12-04T04:58:34;18.30;;;7.70;;
25331;SDS011;13284;52.748;13.452;2023-12-04T05:00:59;21.30;;;10.73;;
25331;SDS011;13284;52.748;13.452;2023-12-04T05:03:25;16.77;;;8.70;;
25331;SDS011;13284;52.748;13.452;2023-12-04T05:05:50;23.77;;;10.10;;
25331;SDS011;13284;52.748;13.452;2023-12-04T05:08:17;22.10;;;10.93;;
25331;SDS011;13284;52.748;13.452;2023-12-04T05:10:42;21.60;;;7.97;;
25331;SDS011;13284;52.748;13.452;2023-12-04T05:13:08;20.53;;;10.10;;
25331;SDS011;13284;52.748;13.452;2023-12-04T05:15:33;20.33;;;10.40;;
25331;SDS011;13284;52.748;13.452;2023-12-04T05:17:59;25.57;;;10.50;;
25331;SDS011;13284;52.748;13.452;2023-12-04T05:20:24;14.60;;;9.27;;
25331;SDS011;13284;52.748;13.452;2023-12-04T05:22:50;18.13;;;9.60;;
25331;SDS011;13284;52.748;13.452;2023-12-04T05:25:17;17.30;;;9.23;;
25331;SDS011;13284;52.748;13.452;2023-12-04T05:27:42;22.97;;;10.93;;
25331;SDS011;13284;52.748;13.452;2023-12-04T05:30:08;25.80;;;11.77;;
25331;SDS011;13284;52.748;13.452;2023-12-04T05:32:34;17.93;;;9.83;;
25331;SDS011;13284;52.748;13.452;2023-12-04T05:34:59;17.33;;;9.10;;
25331;SDS011;13284;52.748;13.452;2023-12-04T05:37:25;18.87;;;11.07;;
25331;SDS011;13284;52.748;13.452;2023-12-04T05:39:51;15.27;;;7.77;;
25331;SDS011;13284;52.748;13.452;2023-12-04T05:42:16;18.90;;;8.83;;
25331;SDS011;13284;52.748;13.452;2023-12-04T05:44:42;17.17;;;10.10;;
25331;SDS011;13284;52.748;13.452;2023-12-04T05:47:07;15.87;;;9.20;;
25331;SDS011;13284;52.748;13.452;2023-12-04T05:49:33;16.97;;;10.20;;
25331;SDS011;13284;52.748;13.452;2023-12-04T05:51:58;17.73;;;9.20;;
25331;SDS011;13284;52.748;13.452;2023-12-04T05:54:24;19.90;;;10.70;;
25331;SDS011;13284;52.748;13.452;2023-12-04T05:56:50;21.63;;;10.07;;
25331;SDS011;13284;52.748;13.452;2023-12-04T05:59:15;17.00;;;9.23;;
25331;SDS011;13284;52.748;13.452;2023-12-04T06:01:40;19.03;;;9.23;;
25331;SDS011;13284;52.748;13.452;2023-12-04T06:04:06;26.10;;;12.43;;
25331;SDS011;13284;52.748;13.452;2023-12-04T06:06:32;24.40;;;12.30;;
25331;SDS011;13284;52.748;13.452;2023-12-04T06:08:57;28.63;;;15.27;;
25331;SDS011;13284;52.748;13.452;2023-12-04T06:11:23;21.80;;;11.10;;
25331;SDS011;13284;52.748;13.452;2023-12-04T06:13:48;17.77;;;11.40;;
25331;SDS011;13284;52.748;13.452;2023-12-04T06:16:14;20.53;;;10.90;;
25331;SDS011;13284;52.748;13.452;2023-12-04T06:18:39;21.50;;;11.40;;
25331;SDS011;13284;52.748;13.452;2023-12-04T06:21:05;17.90;;;9.37;;
25331;SDS011;13284;52.748;13.452;2023-12-04T06:23:31;17.10;;;8.17;;
25331;SDS011;13284;52.748;13.452;2023-12-04T06:25:57;19.30;;;11.17;;
25331;SDS011;13284;52.748;13.452;2023-12-04T06:28:23;20.73;;;10.23;;
25331;SDS011;13284;52.748;13.452;2023-12-04T06:30:48;21.00;;;9.53;;
25331;SDS011;13284;52.748;13.452;2023-12-04T06:33:14;16.30;;;8.50;;
25331;SDS011;13284;52.748;13.452;2023-12-04T06:35:42;17.30;;;7.70;;
25331;SDS011;13284;52.748;13.452;2023-12-04T06:38:08;18.93;;;9.67;;
25331;SDS011;13284;52.748;13.452;2023-12-04T06:40:38;16.47;;;10.47;;
25331;SDS011;13284;52.748;13.452;2023-12-04T06:43:04;20.70;;;9.10;;
25331;SDS011;13284;52.748;13.452;2023-12-04T06:45:30;18.27;;;9.97;;
25331;SDS011;13284;52.748;13.452;2023-12-04T06:47:57;23.17;;;10.70;;
25331;SDS011;13284;52.748;13.452;2023-12-04T06:50:24;18.33;;;11.20;;
25331;SDS011;13284;52.748;13.452;2023-12-04T06:52:49;19.73;;;9.97;;
25331;SDS011;13284;52.748;13.452;2023-12-04T06:55:15;19.17;;;9.67;;
25331;SDS011;13284;52.748;13.452;2023-12-04T06:57:40;14.27;;;9.10;;
25331;SDS011;13284;52.748;13.452;2023-12-04T07:00:06;16.00;;;8.87;;
25331;SDS011;13284;52.748;13.452;2023-12-04T07:02:33;19.67;;;8.83;;
25331;SDS011;13284;52.748;13.452;2023-12-04T07:04:58;18.03;;;8.43;;
25331;SDS011;13284;52.748;13.452;2023-12-04T07:07:24;14.83;;;8.40;;
25331;SDS011;13284;52.748;13.452;2023-12-04T07:09:50;20.57;;;10.30;;
25331;SDS011;13284;52.748;13.452;2023-12-04T07:12:15;12.70;;;8.23;;
25331;SDS011;13284;52.748;13.452;2023-12-04T07:14:41;18.23;;;9.37;;
25331;SDS011;13284;52.748;13.452;2023-12-04T07:17:06;20.93;;;12.13;;
25331;SDS011;13284;52.748;13.452;2023-12-04T07:19:32;19.40;;;9.90;;
25331;SDS011;13284;52.748;13.452;2023-12-04T07:21:57;18.03;;;9.30;;
25331;SDS011;13284;52.748;13.452;2023-12-04T07:24:23;18.57;;;9.43;;
25331;SDS011;13284;52.748;13.452;2023-12-04T07:26:48;20.13;;;9.77;;
25331;SDS011;13284;52.748;13.452;2023-12-04T07:29:14;21.47;;;10.60;;
25331;SDS011;13284;52.748;13.452;2023-12-04T07:31:41;20.50;;;8.20;;
25331;SDS011;13284;52.748;13.452;2023-12-04T07:34:07;23.33;;;10.63;;
25331;SDS011;13284;52.748;13.452;2023-12-04T07:36:32;18.43;;;9.40;;
25331;SDS011;13284;52.748;13.452;2023-12-04T07:38:58;15.67;;;9.17;;
25331;SDS011;13284;52.748;13.452;2023-12-04T07:41:23;14.33;;;8.60;;
25331;SDS011;13284;52.748;13.452;2023-12-04T07:43:49;17.60;;;8.70;;
25331;SDS011;13284;52.748;13.452;2023-12-04T07:46:14;15.43;;;9.10;;
25331;SDS011;13284;52.748;13.452;2023-12-04T07:48:40;16.27;;;9.00;;
25331;SDS011;13284;52.748;13.452;2023-12-04T07:51:07;19.20;;;9.80;;
25331;SDS011;13284;52.748;13.452;2023-12-04T07:53:34;20.70;;;10.27;;
25331;SDS011;13284;52.748;13.452;2023-12-04T07:56:03;14.43;;;8.10;;
25331;SDS011;13284;52.748;13.452;2023-12-04T07:58:29;18.10;;;9.60;;
25331;SDS011;13284;52.748;13.452;2023-12-04T08:00:56;16.30;;;8.13;;
25331;SDS011;13284;52.748;13.452;2023-12-04T08:03:22;17.30;;;8.63;;
25331;SDS011;13284;52.748;13.452;2023-12-04T08:05:49;17.67;;;8.33;;
25331;SDS011;13284;52.748;13.452;2023-12-04T08:08:15;17.97;;;9.20;;
25331;SDS011;13284;52.748;13.452;2023-12-04T08:10:40;18.50;;;8.10;;
25331;SDS011;13284;52.748;13.452;2023-12-04T08:13:06;18.63;;;9.57;;
25331;SDS011;13284;52.748;13.452;2023-12-04T08:15:32;15.50;;;8.27;;
25331;SDS011;13284;52.748;13.452;2023-12-04T08:17:57;16.40;;;10.03;;
25331;SDS011;13284;52.748;13.452;2023-12-04T08:20:23;17.37;;;9.23;;
25331;SDS011;13284;52.748;13.452;2023-12-04T08:22:48;24.33;;;11.47;;
25331;SDS011;13284;52.748;13.452;2023-12-04T08:25:14;18.40;;;9.20;;
25331;SDS011;13284;52.748;13.452;2023-12-04T08:27:39;19.77;;;9.90;;
25331;SDS011;13284;52.748;13.452;2023-12-04T08:30:05;13.80;;;8.60;;
25331;SDS011;13284;52.748;13.452;2023-12-04T08:32:31;18.53;;;8.73;;
25331;SDS011;13284;52.748;13.452;2023-12-04T08:34:56;20.87;;;10.20;;
25331;SDS011;13284;52.748;13.452;2023-12-04T08:37:22;21.20;;;10.57;;
25331;SDS011;13284;52.748;13.452;2023-12-04T08:39:47;18.60;;;9.13;;
25331;SDS011;13284;52.748;13.452;2023-12-04T08:42:13;18.33;;;10.43;;
25331;SDS011;13284;52.748;13.452;2023-12-04T08:44:38;17.43;;;9.30;;
25331;SDS011;13284;52.748;13.452;2023-12-04T08:47:05;18.83;;;11.20;;
25331;SDS011;13284;52.748;13.452;2023-12-04T08:49:31;17.83;;;8.93;;
25331;SDS011;13284;52.748;13.452;2023-12-04T08:51:57;17.97;;;10.10;;
25331;SDS011;13284;52.748;13.452;2023-12-04T08:54:23;16.20;;;9.80;;
25331;SDS011;13284;52.748;13.452;2023-12-04T08:56:49;16.03;;;9.23;;
25331;SDS011;13284;52.748;13.452;2023-12-04T08:59:14;16.40;;;9.77;;
25331;SDS011;13284;52.748;13.452;2023-12-04T09:01:41;16.10;;;9.43;;
25331;SDS011;13284;52.748;13.452;2023-12-04T09:04:07;21.17;;;9.77;;
25331;SDS011;13284;52.748;13.452;2023-12-04T09:06:33;17.93;;;9.10;;
25331;SDS011;13284;52.748;13.452;2023-12-04T09:08:59;13.50;;;8.87;;
25331;SDS011;13284;52.748;13.452;2023-12-04T09:11:24;14.40;;;8.33;;
25331;SDS011;13284;52.748;13.452;2023-12-04T09:13:50;14.80;;;8.03;;
25331;SDS011;13284;52.748;13.452;2023-12-04T09:16:15;17.60;;;8.77;;
25331;SDS011;13284;52.748;13.452;2023-12-04T09:18:44;13.27;;;7.63;;
25331;SDS011;13284;52.748;13.452;2023-12-04T09:21:10;21.60;;;9.10;;
25331;SDS011;13284;52.748;13.452;2023-12-04T09:23:35;18.60;;;9.57;;
25331;SDS011;13284;52.748;13.452;2023-12-04T09:26:01;16.13;;;9.40;;
25331;SDS011;13284;52.748;13.452;2023-12-04T09:28:26;19.80;;;10.23;;
25331;SDS011;13284;52.748;13.452;2023-12-04T09:30:52;17.37;;;9.43;;
25331;SDS011;13284;52.748;13.452;2023-12-04T09:33:18;20.40;;;10.60;;
25331;SDS011;13284;52.748;13.452;2023-12-04T09:35:43;20.60;;;10.87;;
25331;SDS011;13284;52.748;13.452;2023-12-04T09:38:09;19.37;;;8.57;;
25331;SDS011;13284;52.748;13.452;2023-12-04T09:40:37;15.67;;;8.77;;
25331;SDS011;13284;52.748;13.452;2023-12-04T09:43:02;17.13;;;9.03;;
25331;SDS011;13284;52.748;13.452;2023-12-04T09:45:28;19.80;;;9.50;;
25331;SDS011;13284;52.748;13.452;2023-12-04T09:47:55;11.53;;;7.80;;
25331;SDS011;13284;52.748;13.452;2023-12-04T09:50:22;16.27;;;8.77;;
25331;SDS011;13284;52.748;13.452;2023-12-04T09:52:51;15.57;;;8.03;;
25331;SDS011;13284;52.748;13.452;2023-12-04T09:55:18;17.40;;;9.33;;
25331;SDS011;13284;52.748;13.452;2023-12-04T09:57:44;24.10;;;9.90;;
25331;SDS011;13284;52.748;13.452;2023-12-04T10:00:14;18.57;;;9.57;;
25331;SDS011;13284;52.748;13.452;2023-12-04T10:02:41;15.60;;;9.13;;
25331;SDS011;13284;52.748;13.452;2023-12-04T10:05:09;16.60;;;9.13;;
25331;SDS011;13284;52.748;13.452;2023-12-04T10:07:35;16.00;;;8.17;;
25331;SDS011;13284;52.748;13.452;2023-12-04T10:10:02;15.50;;;8.80;;
25331;SDS011;13284;52.748;13.452;2023-12-04T10:12:30;13.20;;;7.97;;
25331;SDS011;13284;52.748;13.452;2023-12-04T10:15:05;15.23;;;9.13;;
25331;SDS011;13284;52.748;13.452;2023-12-04T10:17:33;18.57;;;9.70;;
25331;SDS011;13284;52.748;13.452;2023-12-04T10:20:14;19.70;;;9.70;;
25331;SDS011;13284;52.748;13.452;2023-12-04T10:22:55;18.10;;;9.10;;
25331;SDS011;13284;52.748;13.452;2023-12-04T10:25:26;11.60;;;7.83;;
25331;SDS011;13284;52.748;13.452;2023-12-04T10:27:54;11.77;;;8.33;;
25331;SDS011;13284;52.748;13.452;2023-12-04T10:30:39;17.50;;;8.70;;
25331;SDS011;13284;52.748;13.452;2023-12-04T10:33:05;14.93;;;8.10;;
25331;SDS011;13284;52.748;13.452;2023-12-04T10:35:32;12.60;;;7.50;;
25331;SDS011;13284;52.748;13.452;2023-12-04T10:38:04;19.00;;;9.60;;
25331;SDS011;13284;52.748;13.452;2023-12-04T10:40:32;19.50;;;10.50;;
25331;SDS011;13284;52.748;13.452;2023-12-04T10:45:44;15.33;;;8.50;;
25331;SDS011;13284;52.748;13.452;2023-12-04T10:48:11;15.50;;;8.23;;
25331;SDS011;13284;52.748;13.452;2023-12-04T10:50:38;17.13;;;9.23;;
25331;SDS011;13284;52.748;13.452;2023-12-04T10:53:10;15.60;;;9.30;;
25331;SDS011;13284;52.748;13.452;2023-12-04T10:55:37;16.00;;;8.57;;
25331;SDS011;13284;52.748;13.452;2023-12-04T10:58:05;17.67;;;9.90;;
25331;SDS011;13284;52.748;13.452;2023-12-04T11:00:33;20.10;;;10.10;;
25331;SDS011;13284;52.748;13.452;2023-12-04T11:03:09;15.93;;;9.53;;
25331;SDS011;13284;52.748;13.452;2023-12-04T11:05:40;16.23;;;9.90;;
25331;SDS011;13284;52.748;13.452;2023-12-04T11:08:08;16.53;;;8.73;;
25331;SDS011;13284;52.748;13.452;2023-12-04T11:10:37;18.00;;;10.10;;
25331;SDS011;13284;52.748;13.452;2023-12-04T11:13:12;15.83;;;8.93;;
25331;SDS011;13284;52.748;13.452;2023-12-04T11:15:47;13.07;;;8.03;;
25331;SDS011;13284;52.748;13.452;2023-12-04T11:18:15;17.07;;;9.60;;
25331;SDS011;13284;52.748;13.452;2023-12-04T11:20:54;16.33;;;9.03;;
25331;SDS011;13284;52.748;13.452;2023-12-04T11:23:23;14.47;;;8.20;;
25331;SDS011;13284;52.748;13.452;2023-12-04T11:25:49;15.13;;;8.33;;
25331;SDS011;13284;52.748;13.452;2023-12-04T11:28:16;14.27;;;8.97;;
25331;SDS011;13284;52.748;13.452;2023-12-04T11:30:43;15.00;;;8.57;;
25331;SDS011;13284;52.748;13.452;2023-12-04T11:33:10;13.97;;;7.73;;
25331;SDS011;13284;52.748;13.452;2023-12-04T11:35:37;16.20;;;9.03;;
25331;SDS011;13284;52.748;13.452;2023-12-04T11:38:04;17.37;;;9.30;;
25331;SDS011;13284;52.748;13.452;2023-12-04T11:40:32;12.30;;;8.53;;
25331;SDS011;13284;52.748;13.452;2023-12-04T11:42:58;16.57;;;8.40;;
25331;SDS011;13284;52.748;13.452;2023-12-04T11:45:24;13.70;;;8.07;;
25331;SDS011;13284;52.748;13.452;2023-12-04T11:50:21;15.90;;;8.90;;
25331;SDS011;13284;52.748;13.452;2023-12-04T11:52:50;14.00;;;8.73;;
25331;SDS011;13284;52.748;13.452;2023-12-04T11:55:22;14.33;;;9.23;;
25331;SDS011;13284;52.748;13.452;2023-12-04T11:57:51;15.67;;;7.70;;
25331;SDS011;13284;52.748;13.452;2023-12-04T12:00:20;15.63;;;8.90;;
25331;SDS011;13284;52.748;13.452;2023-12-04T12:05:19;10.97;;;7.60;;
25331;SDS011;13284;52.748;13.452;2023-12-04T12:07:45;16.33;;;7.37;;
25331;SDS011;13284;52.748;13.452;2023-12-04T12:10:11;13.77;;;8.47;;
25331;SDS011;13284;52.748;13.452;2023-12-04T12:12:40;14.80;;;9.27;;
25331;SDS011;13284;52.748;13.452;2023-12-04T12:15:09;13.63;;;7.40;;
25331;SDS011;13284;52.748;13.452;2023-12-04T12:17:35;13.43;;;7.37;;
25331;SDS011;13284;52.748;13.452;2023-12-04T12:20:04;12.60;;;8.17;;
25331;SDS011;13284;52.748;13.452;2023-12-04T12:22:31;10.50;;;7.17;;
25331;SDS011;13284;52.748;13.452;2023-12-04T12:24:58;14.17;;;7.73;;
25331;SDS011;13284;52.748;13.452;2023-12-04T12:27:24;13.37;;;7.80;;
25331;SDS011;13284;52.748;13.452;2023-12-04T12:29:50;13.60;;;7.60;;
25331;SDS011;13284;52.748;13.452;2023-12-04T12:32:15;12.37;;;8.23;;
25331;SDS011;13284;52.748;13.452;2023-12-04T12:34:41;15.57;;;8.03;;
25331;SDS011;13284;52.748;13.452;2023-12-04T12:37:07;14.90;;;8.67;;
25331;SDS011;13284;52.748;13.452;2023-12-04T12:39:33;9.87;;;7.00;;
25331;SDS011;13284;52.748;13.452;2023-12-04T12:42:02;13.97;;;8.10;;
25331;SDS011;13284;52.748;13.452;2023-12-04T12:44:36;13.90;;;7.53;;
25331;SDS011;13284;52.748;13.452;2023-12-04T12:47:08;10.63;;;6.80;;
25331;SDS011;13284;52.748;13.452;2023-12-04T12:49:36;12.77;;;7.70;;
25331;SDS011;13284;52.748;13.452;2023-12-04T12:52:06;11.67;;;6.70;;
25331;SDS011;13284;52.748;13.452;2023-12-04T12:54:33;10.07;;;7.70;;
25331;SDS011;13284;52.748;13.452;2023-12-04T12:57:01;14.27;;;7.73;;
25331;SDS011;13284;52.748;13.452;2023-12-04T12:59:27;15.00;;;7.97;;
25331;SDS011;13284;52.748;13.452;2023-12-04T13:01:53;15.90;;;8.73;;
25331;SDS011;13284;52.748;13.452;2023-12-04T13:04:18;11.90;;;7.50;;
25331;SDS011;13284;52.748;13.452;2023-12-04T13:06:44;13.40;;;7.93;;
25331;SDS011;13284;52.748;13.452;2023-12-04T13:09:11;13.40;;;7.77;;
25331;SDS011;13284;52.748;13.452;2023-12-04T13:11:42;9.70;;;6.63;;
25331;SDS011;13284;52.748;13.452;2023-12-04T13:14:09;17.73;;;8.73;;
25331;SDS011;13284;52.748;13.452;2023-12-04T13:16:35;12.50;;;7.80;;
25331;SDS011;13284;52.748;13.452;2023-12-04T13:19:00;13.63;;;8.50;;
25331;SDS011;13284;52.748;13.452;2023-12-04T13:21:27;10.80;;;7.00;;
25331;SDS011;13284;52.748;13.452;2023-12-04T13:23:52;12.27;;;7.40;;
25331;SDS011;13284;52.748;13.452;2023-12-04T13:26:18;13.13;;;7.83;;
25331;SDS011;13284;52.748;13.452;2023-12-04T13:28:45;13.10;;;8.00;;
25331;SDS011;13284;52.748;13.452;2023-12-04T13:31:11;14.67;;;7.43;;
25331;SDS011;13284;52.748;13.452;2023-12-04T13:33:36;10.70;;;6.70;;
25331;SDS011;13284;52.748;13.452;2023-12-04T13:36:02;13.57;;;7.10;;
25331;SDS011;13284;52.748;13.452;2023-12-04T13:38:29;13.40;;;7.87;;
25331;SDS011;13284;52.748;13.452;2023-12-04T13:40:54;12.90;;;7.43;;
25331;SDS011;13284;52.748;13.452;2023-12-04T13:43:33;10.80;;;7.03;;
25331;SDS011;13284;52.748;13.452;2023-12-04T13:46:18;11.13;;;6.43;;
25331;SDS011;13284;52.748;13.452;2023-12-04T13:48:44;15.57;;;8.40;;
25331;SDS011;13284;52.748;13.452;2023-12-04T13:51:10;9.67;;;6.80;;
25331;SDS011;13284;52.748;13.452;2023-12-04T13:53:37;12.07;;;7.07;;
25331;SDS011;13284;52.748;13.452;2023-12-04T13:56:09;14.83;;;8.27;;
25331;SDS011;13284;52.748;13.452;2023-12-04T13:59:02;8.23;;;6.80;;
25331;SDS011;13284;52.748;13.452;2023-12-04T14:01:29;14.07;;;7.63;;
25331;SDS011;13284;52.748;13.452;2023-12-04T14:03:57;13.77;;;8.40;;
25331;SDS011;13284;52.748;13.452;2023-12-04T14:06:27;12.40;;;7.70;;
25331;SDS011;13284;52.748;13.452;2023-12-04T14:08:53;12.83;;;8.20;;
25331;SDS011;13284;52.748;13.452;2023-12-04T14:11:19;10.83;;;7.10;;
25331;SDS011;13284;52.748;13.452;2023-12-04T14:13:45;15.80;;;7.70;;
25331;SDS011;13284;52.748;13.452;2023-12-04T14:16:11;11.27;;;6.93;;
25331;SDS011;13284;52.748;13.452;2023-12-04T14:18:36;14.30;;;8.30;;
25331;SDS011;13284;52.748;13.452;2023-12-04T14:21:02;13.00;;;8.10;;
25331;SDS011;13284;52.748;13.452;2023-12-04T14:23:28;12.60;;;7.97;;